Raisin, Texas
Current Conditions -  °F | °C
As of 10:51 AM on Thursday 23 Oct 2014 (Local Time) from KVCT Reporting Station
Clear Clear  
Wind Chill: 22°   Ceiling: Unl
Heat Index: 22°   Visibility: 10mi
Dew Point: 16°   Wind: 7mph
Humidity: 68%   Direction: 50°NE
Pressure: 30.14"   Gusts: NA
Location:  28.877°N, 97.189°W
Report Text: KVCT 231551Z 05006KT 10SM CLR 22/16 A3014 RMK AO2 SLP205 T02220161
Loading
Personal Weather Stations






























Interactive Weather Map
Tropical Storm Tracking
New forecast layout! Learn more

10-Day Weather Forecast

Advertisements
Track Severe Weather on mobile